sensor_id;sensor_type;location;lat;lon;timestamp;pressure;altitude;pressure_sealevel;temperature;humidity
13434;BME280;6789;47.678;9.158;2023-05-02T00:02:50;96861.34;;;10.29;100.00
13434;BME280;6789;47.678;9.158;2023-05-02T00:07:43;96857.00;;;10.23;100.00
13434;BME280;6789;47.678;9.158;2023-05-02T00:12:34;96843.88;;;10.23;100.00
13434;BME280;6789;47.678;9.158;2023-05-02T00:17:26;96847.25;;;10.30;100.00
13434;BME280;6789;47.678;9.158;2023-05-02T00:22:18;96837.13;;;10.34;100.00
13434;BME280;6789;47.678;9.158;2023-05-02T00:27:10;96838.28;;;10.38;100.00
13434;BME280;6789;47.678;9.158;2023-05-02T00:32:02;96830.41;;;10.38;100.00
13434;BME280;6789;47.678;9.158;2023-05-02T00:36:54;96839.97;;;10.32;100.00
13434;BME280;6789;47.678;9.158;2023-05-02T00:41:45;96833.31;;;10.30;100.00
13434;BME280;6789;47.678;9.158;2023-05-02T00:46:37;96824.06;;;10.27;100.00
13434;BME280;6789;47.678;9.158;2023-05-02T00:51:29;96822.69;;;10.25;100.00
13434;BME280;6789;47.678;9.158;2023-05-02T00:56:23;96821.78;;;10.19;100.00
13434;BME280;6789;47.678;9.158;2023-05-02T01:12:00;96824.16;;;10.03;100.00
13434;BME280;6789;47.678;9.158;2023-05-02T01:17:10;96824.59;;;10.00;100.00
13434;BME280;6789;47.678;9.158;2023-05-02T01:22:07;96827.03;;;9.95;100.00
13434;BME280;6789;47.678;9.158;2023-05-02T01:27:26;96817.44;;;9.89;100.00
13434;BME280;6789;47.678;9.158;2023-05-02T01:32:22;96821.72;;;9.84;100.00
13434;BME280;6789;47.678;9.158;2023-05-02T01:37:16;96823.75;;;9.82;100.00
13434;BME280;6789;47.678;9.158;2023-05-02T01:42:10;96828.81;;;9.77;100.00
13434;BME280;6789;47.678;9.158;2023-05-02T01:47:06;96832.91;;;9.73;100.00
13434;BME280;6789;47.678;9.158;2023-05-02T01:52:04;96835.38;;;9.68;100.00
13434;BME280;6789;47.678;9.158;2023-05-02T01:57:01;96841.59;;;9.91;100.00
13434;BME280;6789;47.678;9.158;2023-05-02T02:01:56;96851.47;;;9.89;100.00
13434;BME280;6789;47.678;9.158;2023-05-02T02:07:01;96843.72;;;9.83;100.00
13434;BME280;6789;47.678;9.158;2023-05-02T02:12:13;96846.09;;;9.84;100.00
13434;BME280;6789;47.678;9.158;2023-05-02T02:17:21;96854.47;;;9.93;100.00
13434;BME280;6789;47.678;9.158;2023-05-02T02:22:18;96860.13;;;9.90;100.00
13434;BME280;6789;47.678;9.158;2023-05-02T02:27:10;96866.97;;;9.91;100.00
13434;BME280;6789;47.678;9.158;2023-05-02T02:32:02;96863.50;;;9.96;100.00
13434;BME280;6789;47.678;9.158;2023-05-02T02:37:00;96874.81;;;9.97;100.00
13434;BME280;6789;47.678;9.158;2023-05-02T02:42:17;96874.28;;;9.89;100.00
13434;BME280;6789;47.678;9.158;2023-05-02T03:03:21;96883.19;;;10.05;100.00
13434;BME280;6789;47.678;9.158;2023-05-02T03:08:13;96883.59;;;10.02;100.00
13434;BME280;6789;47.678;9.158;2023-05-02T03:13:05;96883.78;;;10.07;100.00
13434;BME280;6789;47.678;9.158;2023-05-02T03:17:57;96879.09;;;10.09;100.00
13434;BME280;6789;47.678;9.158;2023-05-02T03:22:49;96879.69;;;10.11;100.00
13434;BME280;6789;47.678;9.158;2023-05-02T03:27:40;96878.31;;;10.09;100.00
13434;BME280;6789;47.678;9.158;2023-05-02T03:32:32;96880.13;;;10.08;100.00
13434;BME280;6789;47.678;9.158;2023-05-02T03:37:24;96868.25;;;10.06;100.00
13434;BME280;6789;47.678;9.158;2023-05-02T03:42:16;96886.81;;;10.04;100.00
13434;BME280;6789;47.678;9.158;2023-05-02T03:47:07;96886.03;;;10.04;100.00
13434;BME280;6789;47.678;9.158;2023-05-02T03:51:59;96877.59;;;10.02;100.00
13434;BME280;6789;47.678;9.158;2023-05-02T03:56:53;96891.47;;;10.02;100.00
13434;BME280;6789;47.678;9.158;2023-05-02T04:01:48;96889.84;;;10.01;100.00
13434;BME280;6789;47.678;9.158;2023-05-02T04:06:43;96887.25;;;10.01;100.00
13434;BME280;6789;47.678;9.158;2023-05-02T04:11:35;96894.25;;;10.07;100.00
13434;BME280;6789;47.678;9.158;2023-05-02T04:16:27;96896.66;;;10.09;100.00
13434;BME280;6789;47.678;9.158;2023-05-02T04:21:19;96901.69;;;10.10;100.00
13434;BME280;6789;47.678;9.158;2023-05-02T04:26:10;96913.75;;;10.11;100.00
13434;BME280;6789;47.678;9.158;2023-05-02T04:31:02;96921.19;;;10.14;100.00
13434;BME280;6789;47.678;9.158;2023-05-02T04:35:58;96930.59;;;10.22;100.00
13434;BME280;6789;47.678;9.158;2023-05-02T04:41:04;96936.13;;;10.32;100.00
13434;BME280;6789;47.678;9.158;2023-05-02T04:46:00;96944.81;;;10.32;100.00
13434;BME280;6789;47.678;9.158;2023-05-02T04:50:53;96949.50;;;10.24;100.00
13434;BME280;6789;47.678;9.158;2023-05-02T04:55:45;96948.13;;;10.21;100.00
13434;BME280;6789;47.678;9.158;2023-05-02T05:00:37;96957.19;;;10.25;100.00
13434;BME280;6789;47.678;9.158;2023-05-02T05:05:29;96962.13;;;10.33;100.00
13434;BME280;6789;47.678;9.158;2023-05-02T05:10:20;96963.00;;;10.45;100.00
13434;BME280;6789;47.678;9.158;2023-05-02T05:15:12;96975.41;;;10.56;100.00
13434;BME280;6789;47.678;9.158;2023-05-02T05:20:05;96990.28;;;10.62;100.00
13434;BME280;6789;47.678;9.158;2023-05-02T05:25:00;96999.66;;;10.69;100.00
13434;BME280;6789;47.678;9.158;2023-05-02T05:29:51;97024.81;;;10.77;100.00
13434;BME280;6789;47.678;9.158;2023-05-02T05:34:43;97050.16;;;10.83;100.00
13434;BME280;6789;47.678;9.158;2023-05-02T05:39:43;97048.91;;;10.85;100.00
13434;BME280;6789;47.678;9.158;2023-05-02T05:44:35;97059.97;;;10.94;100.00
13434;BME280;6789;47.678;9.158;2023-05-02T05:49:31;97055.34;;;10.89;100.00
13434;BME280;6789;47.678;9.158;2023-05-02T05:54:55;97065.63;;;11.09;100.00
13434;BME280;6789;47.678;9.158;2023-05-02T05:59:47;97082.41;;;11.08;100.00
13434;BME280;6789;47.678;9.158;2023-05-02T06:04:39;97065.34;;;11.17;100.00
13434;BME280;6789;47.678;9.158;2023-05-02T06:09:45;97063.84;;;11.38;100.00
13434;BME280;6789;47.678;9.158;2023-05-02T06:14:37;97071.03;;;11.49;100.00
13434;BME280;6789;47.678;9.158;2023-05-02T06:19:29;97081.03;;;11.59;100.00
13434;BME280;6789;47.678;9.158;2023-05-02T06:24:33;97095.69;;;11.66;100.00
13434;BME280;6789;47.678;9.158;2023-05-02T06:29:46;97110.81;;;11.82;100.00
13434;BME280;6789;47.678;9.158;2023-05-02T06:34:55;97118.56;;;11.77;100.00
13434;BME280;6789;47.678;9.158;2023-05-02T06:39:54;97121.28;;;11.71;100.00
13434;BME280;6789;47.678;9.158;2023-05-02T06:45:05;97119.38;;;11.78;100.00
13434;BME280;6789;47.678;9.158;2023-05-02T06:50:02;97124.25;;;11.92;100.00
13434;BME280;6789;47.678;9.158;2023-05-02T06:54:55;97132.25;;;11.97;100.00
13434;BME280;6789;47.678;9.158;2023-05-02T06:59:57;97130.47;;;12.09;100.00
13434;BME280;6789;47.678;9.158;2023-05-02T07:05:10;97134.75;;;12.21;100.00
13434;BME280;6789;47.678;9.158;2023-05-02T07:10:07;97150.66;;;12.38;100.00
13434;BME280;6789;47.678;9.158;2023-05-02T07:15:03;97152.34;;;12.62;100.00
13434;BME280;6789;47.678;9.158;2023-05-02T07:20:18;97152.75;;;12.88;100.00
13434;BME280;6789;47.678;9.158;2023-05-02T07:25:13;97167.16;;;12.97;100.00
13434;BME280;6789;47.678;9.158;2023-05-02T07:30:20;97180.81;;;13.17;100.00
13434;BME280;6789;47.678;9.158;2023-05-02T07:35:29;97178.88;;;13.35;100.00
13434;BME280;6789;47.678;9.158;2023-05-02T07:40:37;97189.63;;;13.56;100.00
13434;BME280;6789;47.678;9.158;2023-05-02T07:45:44;97189.72;;;13.61;100.00
13434;BME280;6789;47.678;9.158;2023-05-02T07:51:09;97191.09;;;13.64;98.65
13434;BME280;6789;47.678;9.158;2023-05-02T07:56:17;97186.84;;;13.63;98.06
13434;BME280;6789;47.678;9.158;2023-05-02T08:01:35;97197.03;;;13.71;97.21
13434;BME280;6789;47.678;9.158;2023-05-02T08:06:42;97212.66;;;13.61;95.18
13434;BME280;6789;47.678;9.158;2023-05-02T08:11:49;97215.84;;;13.63;97.20
13434;BME280;6789;47.678;9.158;2023-05-02T08:17:08;97208.84;;;13.68;95.50
13434;BME280;6789;47.678;9.158;2023-05-02T08:22:15;97213.63;;;13.71;96.56
13434;BME280;6789;47.678;9.158;2023-05-02T08:27:23;97219.06;;;13.65;96.01
13434;BME280;6789;47.678;9.158;2023-05-02T08:32:40;97222.94;;;13.51;94.99
13434;BME280;6789;47.678;9.158;2023-05-02T08:37:46;97226.72;;;13.78;95.25
13434;BME280;6789;47.678;9.158;2023-05-02T08:42:53;97228.19;;;13.74;93.09
13434;BME280;6789;47.678;9.158;2023-05-02T08:47:59;97224.56;;;14.26;90.63
13434;BME280;6789;47.678;9.158;2023-05-02T08:53:07;97247.88;;;14.17;90.71
13434;BME280;6789;47.678;9.158;2023-05-02T08:58:02;97241.34;;;14.47;90.56
13434;BME280;6789;47.678;9.158;2023-05-02T09:03:10;97235.72;;;14.72;88.34
13434;BME280;6789;47.678;9.158;2023-05-02T09:08:06;97245.63;;;14.65;87.74
13434;BME280;6789;47.678;9.158;2023-05-02T09:13:35;97241.88;;;14.61;86.62
13434;BME280;6789;47.678;9.158;2023-05-02T09:18:34;97250.44;;;14.68;88.27
13434;BME280;6789;47.678;9.158;2023-05-02T09:29:02;97254.69;;;14.69;85.84
13434;BME280;6789;47.678;9.158;2023-05-02T09:34:12;97252.97;;;14.91;84.89
13434;BME280;6789;47.678;9.158;2023-05-02T09:39:27;97255.03;;;15.33;84.78
13434;BME280;6789;47.678;9.158;2023-05-02T09:45:25;97252.31;;;15.82;81.97
13434;BME280;6789;47.678;9.158;2023-05-02T09:50:37;97255.66;;;15.56;81.76
13434;BME280;6789;47.678;9.158;2023-05-02T09:55:43;97259.09;;;15.40;80.89
13434;BME280;6789;47.678;9.158;2023-05-02T10:00:44;97262.22;;;15.54;79.84
13434;BME280;6789;47.678;9.158;2023-05-02T10:05:51;97267.28;;;15.55;81.45
13434;BME280;6789;47.678;9.158;2023-05-02T10:11:02;97267.25;;;15.72;79.69
13434;BME280;6789;47.678;9.158;2023-05-02T10:16:12;97261.19;;;15.38;80.14
13434;BME280;6789;47.678;9.158;2023-05-02T10:21:26;97262.13;;;15.16;79.35
13434;BME280;6789;47.678;9.158;2023-05-02T10:26:40;97261.34;;;15.32;78.34
13434;BME280;6789;47.678;9.158;2023-05-02T10:32:00;97253.72;;;16.06;77.52
13434;BME280;6789;47.678;9.158;2023-05-02T10:37:10;97257.66;;;16.94;74.72
13434;BME280;6789;47.678;9.158;2023-05-02T10:42:23;97239.16;;;16.99;74.52
13434;BME280;6789;47.678;9.158;2023-05-02T10:47:43;97234.88;;;17.60;72.16
13434;BME280;6789;47.678;9.158;2023-05-02T10:52:50;97234.28;;;17.89;70.09
13434;BME280;6789;47.678;9.158;2023-05-02T11:03:57;97231.72;;;18.75;64.95
13434;BME280;6789;47.678;9.158;2023-05-02T11:25:03;97223.81;;;19.30;61.51
13434;BME280;6789;47.678;9.158;2023-05-02T11:30:11;97221.16;;;19.55;59.37
13434;BME280;6789;47.678;9.158;2023-05-02T11:35:24;97217.91;;;19.63;59.05
13434;BME280;6789;47.678;9.158;2023-05-02T11:40:31;97214.34;;;18.38;60.78
13434;BME280;6789;47.678;9.158;2023-05-02T11:45:38;97213.13;;;18.90;61.67
13434;BME280;6789;47.678;9.158;2023-05-02T11:51:06;97226.38;;;18.56;60.41
13434;BME280;6789;47.678;9.158;2023-05-02T11:56:05;97224.75;;;18.55;60.93
13434;BME280;6789;47.678;9.158;2023-05-02T12:01:13;97231.97;;;18.08;62.58
13434;BME280;6789;47.678;9.158;2023-05-02T12:06:20;97226.72;;;18.18;62.35
13434;BME280;6789;47.678;9.158;2023-05-02T12:11:26;97237.06;;;17.68;63.83
13434;BME280;6789;47.678;9.158;2023-05-02T12:16:20;97244.47;;;17.66;63.76
13434;BME280;6789;47.678;9.158;2023-05-02T12:21:16;97238.53;;;17.49;64.61
13434;BME280;6789;47.678;9.158;2023-05-02T12:26:24;97251.19;;;17.37;64.85
13434;BME280;6789;47.678;9.158;2023-05-02T12:31:51;97253.44;;;17.55;67.18
13434;BME280;6789;47.678;9.158;2023-05-02T12:37:00;97256.72;;;17.10;71.40
13434;BME280;6789;47.678;9.158;2023-05-02T12:42:18;97254.63;;;16.59;75.50
13434;BME280;6789;47.678;9.158;2023-05-02T12:47:26;97251.28;;;16.42;76.50
13434;BME280;6789;47.678;9.158;2023-05-02T12:52:49;97249.03;;;16.77;75.63
13434;BME280;6789;47.678;9.158;2023-05-02T13:03:12;97224.44;;;17.13;71.25
13434;BME280;6789;47.678;9.158;2023-05-02T13:08:18;97218.13;;;17.18;71.21
13434;BME280;6789;47.678;9.158;2023-05-02T13:13:14;97216.16;;;17.35;70.32
13434;BME280;6789;47.678;9.158;2023-05-02T13:18:21;97217.47;;;17.02;70.68
13434;BME280;6789;47.678;9.158;2023-05-02T13:23:16;97221.97;;;17.32;68.26
13434;BME280;6789;47.678;9.158;2023-05-02T13:28:22;97209.34;;;17.44;70.09
13434;BME280;6789;47.678;9.158;2023-05-02T13:33:30;97205.06;;;17.85;67.65
13434;BME280;6789;47.678;9.158;2023-05-02T13:38:37;97195.66;;;18.18;65.95
13434;BME280;6789;47.678;9.158;2023-05-02T13:43:43;97194.78;;;18.03;65.40
13434;BME280;6789;47.678;9.158;2023-05-02T13:49:21;97184.69;;;18.66;63.81
13434;BME280;6789;47.678;9.158;2023-05-02T13:54:27;97183.88;;;18.90;61.18
13434;BME280;6789;47.678;9.158;2023-05-02T13:59:33;97187.41;;;19.16;61.04
13434;BME280;6789;47.678;9.158;2023-05-02T14:04:40;97187.34;;;19.50;60.26
13434;BME280;6789;47.678;9.158;2023-05-02T14:09:46;97171.69;;;19.29;60.28
13434;BME280;6789;47.678;9.158;2023-05-02T14:14:55;97178.31;;;19.51;60.24
13434;BME280;6789;47.678;9.158;2023-05-02T14:20:01;97180.13;;;19.66;58.69
13434;BME280;6789;47.678;9.158;2023-05-02T14:25:09;97171.16;;;19.42;59.44
13434;BME280;6789;47.678;9.158;2023-05-02T14:30:14;97177.00;;;19.14;59.26
13434;BME280;6789;47.678;9.158;2023-05-02T14:35:20;97174.06;;;19.11;56.87
13434;BME280;6789;47.678;9.158;2023-05-02T14:40:28;97178.31;;;18.92;56.61
13434;BME280;6789;47.678;9.158;2023-05-02T14:45:34;97176.69;;;18.81;56.70
13434;BME280;6789;47.678;9.158;2023-05-02T14:50:40;97180.19;;;18.86;55.46
13434;BME280;6789;47.678;9.158;2023-05-02T14:55:46;97184.69;;;18.96;58.18
13434;BME280;6789;47.678;9.158;2023-05-02T15:00:52;97193.75;;;17.53;58.47
13434;BME280;6789;47.678;9.158;2023-05-02T15:06:18;97205.75;;;16.98;60.14
13434;BME280;6789;47.678;9.158;2023-05-02T15:11:24;97214.25;;;16.47;60.05
13434;BME280;6789;47.678;9.158;2023-05-02T15:16:30;97219.41;;;16.32;62.48
13434;BME280;6789;47.678;9.158;2023-05-02T15:21:52;97237.91;;;15.73;65.18
13434;BME280;6789;47.678;9.158;2023-05-02T15:26:58;97235.03;;;15.74;69.41
13434;BME280;6789;47.678;9.158;2023-05-02T15:31:55;97238.25;;;15.76;71.39
13434;BME280;6789;47.678;9.158;2023-05-02T15:37:02;97205.31;;;16.10;65.85
13434;BME280;6789;47.678;9.158;2023-05-02T15:42:14;97209.47;;;16.44;68.59
13434;BME280;6789;47.678;9.158;2023-05-02T15:47:24;97218.06;;;16.56;66.88
13434;BME280;6789;47.678;9.158;2023-05-02T15:52:30;97215.25;;;16.41;64.35
13434;BME280;6789;47.678;9.158;2023-05-02T15:57:24;97217.56;;;16.16;65.01
13434;BME280;6789;47.678;9.158;2023-05-02T16:02:18;97228.66;;;16.13;64.92
13434;BME280;6789;47.678;9.158;2023-05-02T16:07:24;97238.56;;;16.01;65.99
13434;BME280;6789;47.678;9.158;2023-05-02T16:12:18;97246.16;;;15.76;65.57
13434;BME280;6789;47.678;9.158;2023-05-02T16:17:25;97253.13;;;15.17;68.21
13434;BME280;6789;47.678;9.158;2023-05-02T16:22:32;97238.13;;;15.34;72.47
13434;BME280;6789;47.678;9.158;2023-05-02T16:27:38;97248.53;;;15.24;73.87
13434;BME280;6789;47.678;9.158;2023-05-02T16:32:42;97263.16;;;15.15;82.06
13434;BME280;6789;47.678;9.158;2023-05-02T16:37:48;97262.81;;;14.51;78.82
13434;BME280;6789;47.678;9.158;2023-05-02T16:42:55;97264.63;;;14.50;80.57
13434;BME280;6789;47.678;9.158;2023-05-02T16:47:54;97266.41;;;14.89;77.17
13434;BME280;6789;47.678;9.158;2023-05-02T16:53:01;97269.13;;;14.94;80.46
13434;BME280;6789;47.678;9.158;2023-05-02T16:58:07;97256.00;;;14.99;83.62
13434;BME280;6789;47.678;9.158;2023-05-02T17:03:13;97255.03;;;14.89;81.50
13434;BME280;6789;47.678;9.158;2023-05-02T17:08:18;97262.38;;;14.70;81.92
13434;BME280;6789;47.678;9.158;2023-05-02T17:13:25;97260.75;;;14.69;84.31
13434;BME280;6789;47.678;9.158;2023-05-02T17:18:31;97276.97;;;14.61;83.34
13434;BME280;6789;47.678;9.158;2023-05-02T17:23:40;97272.09;;;14.53;85.32
13434;BME280;6789;47.678;9.158;2023-05-02T17:28:34;97281.88;;;14.41;81.36
13434;BME280;6789;47.678;9.158;2023-05-02T17:33:41;97297.84;;;14.24;78.62
13434;BME280;6789;47.678;9.158;2023-05-02T17:38:45;97306.41;;;14.42;85.61
13434;BME280;6789;47.678;9.158;2023-05-02T17:43:51;97313.13;;;14.10;92.84
13434;BME280;6789;47.678;9.158;2023-05-02T17:48:51;97326.53;;;13.63;93.98
13434;BME280;6789;47.678;9.158;2023-05-02T17:53:45;97326.75;;;13.50;98.01
13434;BME280;6789;47.678;9.158;2023-05-02T17:58:51;97335.00;;;13.42;97.72
13434;BME280;6789;47.678;9.158;2023-05-02T18:03:58;97310.13;;;13.38;99.62
13434;BME280;6789;47.678;9.158;2023-05-02T18:08:57;97303.13;;;13.32;100.00
13434;BME280;6789;47.678;9.158;2023-05-02T18:14:12;97307.00;;;13.30;100.00
13434;BME280;6789;47.678;9.158;2023-05-02T18:19:08;97310.00;;;13.33;100.00
13434;BME280;6789;47.678;9.158;2023-05-02T18:24:14;97313.66;;;13.32;100.00
13434;BME280;6789;47.678;9.158;2023-05-02T18:29:20;97372.47;;;12.85;100.00
13434;BME280;6789;47.678;9.158;2023-05-02T18:34:34;97381.81;;;12.64;100.00
13434;BME280;6789;47.678;9.158;2023-05-02T18:39:31;97390.47;;;12.53;100.00
13434;BME280;6789;47.678;9.158;2023-05-02T18:44:24;97386.06;;;12.11;100.00
13434;BME280;6789;47.678;9.158;2023-05-02T18:49:43;97379.66;;;11.83;100.00
13434;BME280;6789;47.678;9.158;2023-05-02T18:54:49;97369.78;;;11.78;100.00
13434;BME280;6789;47.678;9.158;2023-05-02T18:59:55;97355.50;;;11.74;100.00
13434;BME280;6789;47.678;9.158;2023-05-02T19:04:51;97342.78;;;11.71;100.00
13434;BME280;6789;47.678;9.158;2023-05-02T19:09:47;97349.53;;;11.85;100.00
13434;BME280;6789;47.678;9.158;2023-05-02T19:14:41;97372.97;;;11.32;100.00
13434;BME280;6789;47.678;9.158;2023-05-02T19:19:34;97358.97;;;11.13;100.00
13434;BME280;6789;47.678;9.158;2023-05-02T19:24:28;97364.25;;;11.07;100.00
13434;BME280;6789;47.678;9.158;2023-05-02T19:29:28;97368.66;;;11.13;100.00
13434;BME280;6789;47.678;9.158;2023-05-02T19:34:21;97372.59;;;11.28;100.00
13434;BME280;6789;47.678;9.158;2023-05-02T19:39:14;97366.97;;;11.49;100.00
13434;BME280;6789;47.678;9.158;2023-05-02T19:44:10;97394.56;;;11.64;100.00
13434;BME280;6789;47.678;9.158;2023-05-02T19:49:16;97404.13;;;11.59;100.00
13434;BME280;6789;47.678;9.158;2023-05-02T19:54:21;97395.06;;;11.48;100.00
13434;BME280;6789;47.678;9.158;2023-05-02T19:59:14;97387.41;;;11.47;100.00
13434;BME280;6789;47.678;9.158;2023-05-02T20:04:14;97384.34;;;11.50;100.00
13434;BME280;6789;47.678;9.158;2023-05-02T20:09:07;97380.31;;;11.47;100.00
13434;BME280;6789;47.678;9.158;2023-05-02T20:14:12;97385.50;;;11.60;100.00
13434;BME280;6789;47.678;9.158;2023-05-02T20:19:18;97391.63;;;11.54;100.00
13434;BME280;6789;47.678;9.158;2023-05-02T20:24:24;97388.03;;;11.42;100.00
13434;BME280;6789;47.678;9.158;2023-05-02T20:29:17;97392.31;;;11.37;100.00
13434;BME280;6789;47.678;9.158;2023-05-02T20:34:10;97377.72;;;11.17;100.00
13434;BME280;6789;47.678;9.158;2023-05-02T20:39:15;97374.09;;;11.11;100.00
13434;BME280;6789;47.678;9.158;2023-05-02T20:44:24;97369.50;;;11.07;100.00
13434;BME280;6789;47.678;9.158;2023-05-02T20:49:20;97371.09;;;11.08;100.00
13434;BME280;6789;47.678;9.158;2023-05-02T20:54:12;97363.50;;;10.93;100.00
13434;BME280;6789;47.678;9.158;2023-05-02T20:59:12;97367.59;;;10.89;100.00
13434;BME280;6789;47.678;9.158;2023-05-02T21:04:04;97374.50;;;10.77;100.00
13434;BME280;6789;47.678;9.158;2023-05-02T21:08:57;97367.81;;;10.88;100.00
13434;BME280;6789;47.678;9.158;2023-05-02T21:13:51;97364.75;;;10.91;100.00
13434;BME280;6789;47.678;9.158;2023-05-02T21:18:45;97374.97;;;10.68;100.00
13434;BME280;6789;47.678;9.158;2023-05-02T21:23:41;97367.31;;;10.60;100.00
13434;BME280;6789;47.678;9.158;2023-05-02T21:28:47;97371.94;;;10.65;100.00
13434;BME280;6789;47.678;9.158;2023-05-02T21:33:42;97369.94;;;10.60;100.00
13434;BME280;6789;47.678;9.158;2023-05-02T21:38:35;97371.19;;;10.51;100.00
13434;BME280;6789;47.678;9.158;2023-05-02T21:43:38;97366.53;;;10.53;100.00
13434;BME280;6789;47.678;9.158;2023-05-02T21:48:32;97359.50;;;10.54;100.00
13434;BME280;6789;47.678;9.158;2023-05-02T21:53:25;97353.25;;;10.42;100.00
13434;BME280;6789;47.678;9.158;2023-05-02T21:58:20;97345.66;;;10.34;100.00
13434;BME280;6789;47.678;9.158;2023-05-02T22:08:43;97343.28;;;10.19;100.00
13434;BME280;6789;47.678;9.158;2023-05-02T22:19:24;97327.03;;;9.98;100.00
13434;BME280;6789;47.678;9.158;2023-05-02T22:24:41;97327.59;;;9.93;100.00
13434;BME280;6789;47.678;9.158;2023-05-02T22:35:05;97317.97;;;9.75;100.00
13434;BME280;6789;47.678;9.158;2023-05-02T22:40:44;97314.53;;;9.61;100.00
13434;BME280;6789;47.678;9.158;2023-05-02T22:45:39;97310.53;;;9.59;100.00
13434;BME280;6789;47.678;9.158;2023-05-02T22:50:47;97305.25;;;9.72;100.00
13434;BME280;6789;47.678;9.158;2023-05-02T23:00:46;97308.31;;;9.69;100.00
13434;BME280;6789;47.678;9.158;2023-05-02T23:05:37;97312.34;;;9.52;100.00
13434;BME280;6789;47.678;9.158;2023-05-02T23:10:29;97309.13;;;9.43;100.00
13434;BME280;6789;47.678;9.158;2023-05-02T23:15:21;97311.16;;;9.22;100.00
13434;BME280;6789;47.678;9.158;2023-05-02T23:20:13;97308.94;;;9.19;100.00
13434;BME280;6789;47.678;9.158;2023-05-02T23:25:07;97299.88;;;9.34;100.00
13434;BME280;6789;47.678;9.158;2023-05-02T23:29:59;97311.75;;;9.30;100.00
13434;BME280;6789;47.678;9.158;2023-05-02T23:34:51;97319.81;;;9.23;100.00
13434;BME280;6789;47.678;9.158;2023-05-02T23:39:43;97317.81;;;9.18;100.00
13434;BME280;6789;47.678;9.158;2023-05-02T23:44:35;97312.56;;;9.12;100.00
13434;BME280;6789;47.678;9.158;2023-05-02T23:49:33;97314.34;;;8.98;100.00
13434;BME280;6789;47.678;9.158;2023-05-02T23:54:40;97291.22;;;8.95;100.00
13434;BME280;6789;47.678;9.158;2023-05-02T23:59:32;97279.97;;;9.01;100.00
